Time;durP1;ratioP1;P1;durP2;ratioP2;P2;SDS_P1;SDS_P2;PMS_P1;PMS_P2;Temp;Humidity;BMP_temperature;BMP_pressure;BME280_temperature;BME280_humidity;BME280_pressure;Samples;Min_cycle;Max_cycle;Signal;HPM_P1;HPM_P2
2022/10/22 00:01:12;;;;;;;0.70;0.70;;;;;;;;;;1801154;78;26646;-44
2022/10/22 00:03:40;;;;;;;0.82;0.80;;;;;;;;;;1797546;78;26373;-51
2022/10/22 00:06:07;;;;;;;0.80;0.80;;;;;;;;;;1794179;78;27367;-56
2022/10/22 00:08:35;;;;;;;0.70;0.70;;;;;;;;;;1798890;78;26288;-47
2022/10/22 00:11:15;;;;;;;0.80;0.80;;;;;;;;;;1796672;78;27148;-48
2022/10/22 00:13:43;;;;;;;0.80;0.80;;;;;;;;;;1814385;78;26346;-48
2022/10/22 00:16:10;;;;;;;0.70;0.70;;;;;;;;;;1806655;78;26756;-48
2022/10/22 00:18:38;;;;;;;0.72;0.72;;;;;;;;;;1796458;78;26332;-45
2022/10/22 00:21:06;;;;;;;0.80;0.80;;;;;;;;;;1796113;78;26698;-43
2022/10/22 00:23:33;;;;;;;0.70;0.70;;;;;;;;;;1785045;78;26789;-43
2022/10/22 00:26:01;;;;;;;0.70;0.70;;;;;;;;;;1781881;78;26294;-43
2022/10/22 00:28:28;;;;;;;0.70;0.70;;;;;;;;;;1799194;78;26270;-45
2022/10/22 00:30:56;;;;;;;0.70;0.70;;;;;;;;;;1793612;78;26275;-48
2022/10/22 00:33:24;;;;;;;0.75;0.75;;;;;;;;;;1783066;78;26287;-48
2022/10/22 00:35:51;;;;;;;0.80;0.80;;;;;;;;;;1780576;79;26374;-48
2022/10/22 00:38:19;;;;;;;0.93;0.80;;;;;;;;;;1826613;78;26206;-48
2022/10/22 00:40:46;;;;;;;0.70;0.70;;;;;;;;;;1830774;77;26212;-48
2022/10/22 00:43:15;;;;;;;0.90;0.90;;;;;;;;;;1828673;77;26307;-49
2022/10/22 00:45:42;;;;;;;0.80;0.80;;;;;;;;;;1838157;77;26260;-54
2022/10/22 00:48:23;;;;;;;0.70;0.70;;;;;;;;;;1835238;77;26202;-45
2022/10/22 00:50:54;;;;;;;0.70;0.70;;;;;;;;;;1833276;77;26626;-52
2022/10/22 00:53:22;;;;;;;0.70;0.70;;;;;;;;;;1827682;77;26300;-52
2022/10/22 00:55:51;;;;;;;0.80;0.80;;;;;;;;;;1824100;77;26270;-43
2022/10/22 00:58:20;;;;;;;0.60;0.60;;;;;;;;;;1836733;77;26698;-45
2022/10/22 01:00:48;;;;;;;0.70;0.70;;;;;;;;;;1836293;77;26780;-46
2022/10/22 01:03:15;;;;;;;0.72;0.72;;;;;;;;;;1836851;77;26232;-49
2022/10/22 01:05:44;;;;;;;0.60;0.60;;;;;;;;;;1833521;77;26788;-47
2022/10/22 01:08:13;;;;;;;0.53;0.53;;;;;;;;;;1817931;77;27362;-43
2022/10/22 01:10:54;;;;;;;0.72;0.72;;;;;;;;;;1834957;77;26853;-46
2022/10/22 01:13:34;;;;;;;0.70;0.70;;;;;;;;;;1834312;77;26261;-43
2022/10/22 01:16:03;;;;;;;0.70;0.70;;;;;;;;;;1833563;77;26244;-45
2022/10/22 01:18:32;;;;;;;0.80;0.80;;;;;;;;;;1836763;77;26212;-50
2022/10/22 01:21:03;;;;;;;0.70;0.70;;;;;;;;;;1833050;77;26269;-42
2022/10/22 01:23:44;;;;;;;0.50;0.50;;;;;;;;;;1833900;76;26354;-43
2022/10/22 01:26:16;;;;;;;0.60;0.60;;;;;;;;;;1842422;77;26272;-55
2022/10/22 01:28:53;;;;;;;0.65;0.65;;;;;;;;;;1836706;77;26259;-43
2022/10/22 01:31:22;;;;;;;0.60;0.60;;;;;;;;;;1834743;77;26778;-47
2022/10/22 01:33:51;;;;;;;0.70;0.70;;;;;;;;;;1836008;77;26294;-44
2022/10/22 01:36:18;;;;;;;0.60;0.60;;;;;;;;;;1839668;76;26204;-43
2022/10/22 01:38:46;;;;;;;0.70;0.70;;;;;;;;;;1801960;78;26212;-43
2022/10/22 01:41:14;;;;;;;0.70;0.70;;;;;;;;;;1800122;78;26233;-44
2022/10/22 01:43:41;;;;;;;0.70;0.70;;;;;;;;;;1799144;78;26263;-46
2022/10/22 01:46:10;;;;;;;0.60;0.60;;;;;;;;;;1803010;78;26350;-52
2022/10/22 01:48:38;;;;;;;0.60;0.60;;;;;;;;;;1795496;78;26225;-49
2022/10/22 01:51:22;;;;;;;0.60;0.60;;;;;;;;;;1811278;78;26263;-46
2022/10/22 01:53:54;;;;;;;0.80;0.80;;;;;;;;;;1796562;78;26318;-52
2022/10/22 01:56:23;;;;;;;0.60;0.60;;;;;;;;;;1802550;78;26235;-42
2022/10/22 01:59:01;;;;;;;1.95;0.70;;;;;;;;;;1814870;77;26903;-55
2022/10/22 02:01:45;;;;;;;0.60;0.60;;;;;;;;;;1801024;78;26260;-49
2022/10/22 02:04:13;;;;;;;0.57;0.57;;;;;;;;;;1804530;78;26306;-49
2022/10/22 02:06:42;;;;;;;0.50;0.50;;;;;;;;;;1809088;78;26297;-44
2022/10/22 02:09:10;;;;;;;0.70;0.70;;;;;;;;;;1798835;78;26259;-47
2022/10/22 02:11:37;;;;;;;0.60;0.60;;;;;;;;;;1801719;78;26720;-44
2022/10/22 02:14:05;;;;;;;0.50;0.50;;;;;;;;;;1807154;78;26256;-48
2022/10/22 02:16:36;;;;;;;1.10;0.50;;;;;;;;;;1823449;78;26365;-47
2022/10/22 02:19:05;;;;;;;0.55;0.55;;;;;;;;;;1803401;78;26792;-55
2022/10/22 02:21:33;;;;;;;0.55;0.55;;;;;;;;;;1803249;78;27392;-45
2022/10/22 02:24:00;;;;;;;0.60;0.60;;;;;;;;;;1818566;78;26257;-42
2022/10/22 02:26:29;;;;;;;0.70;0.70;;;;;;;;;;1806268;78;26792;-47
2022/10/22 02:28:58;;;;;;;0.60;0.60;;;;;;;;;;1812719;78;26734;-43
2022/10/22 02:31:27;;;;;;;0.60;0.60;;;;;;;;;;1802136;78;26903;-48
2022/10/22 02:33:55;;;;;;;0.62;0.62;;;;;;;;;;1800242;78;27154;-43
2022/10/22 02:36:23;;;;;;;0.60;0.60;;;;;;;;;;1794799;78;26349;-44
2022/10/22 02:38:51;;;;;;;0.50;0.50;;;;;;;;;;1801627;77;26311;-50
2022/10/22 02:41:19;;;;;;;0.72;0.72;;;;;;;;;;1800162;78;26280;-47
2022/10/22 02:43:51;;;;;;;0.50;0.50;;;;;;;;;;1801737;78;26343;-43
2022/10/22 02:46:18;;;;;;;0.60;0.60;;;;;;;;;;1802654;78;26214;-45
2022/10/22 02:48:45;;;;;;;0.60;0.60;;;;;;;;;;1798672;78;26302;-49
2022/10/22 02:51:13;;;;;;;0.57;0.57;;;;;;;;;;1800112;78;26751;-52
2022/10/22 02:53:40;;;;;;;0.45;0.45;;;;;;;;;;1800034;78;26251;-42
2022/10/22 02:56:07;;;;;;;0.70;0.70;;;;;;;;;;1795129;78;26322;-47
2022/10/22 02:58:35;;;;;;;1.27;0.60;;;;;;;;;;1782808;78;26379;-47
2022/10/22 03:01:02;;;;;;;0.60;0.60;;;;;;;;;;1816395;78;26267;-50
2022/10/22 03:03:29;;;;;;;0.55;0.55;;;;;;;;;;1811254;78;26749;-45
2022/10/22 03:05:57;;;;;;;0.50;0.50;;;;;;;;;;1812397;78;26725;-46
2022/10/22 03:08:24;;;;;;;0.60;0.60;;;;;;;;;;1803327;78;26311;-43
2022/10/22 03:10:51;;;;;;;0.50;0.50;;;;;;;;;;1796694;78;26267;-46
2022/10/22 03:13:19;;;;;;;0.53;0.53;;;;;;;;;;1800534;78;26257;-47
2022/10/22 03:15:48;;;;;;;0.60;0.60;;;;;;;;;;1797744;78;26263;-55
2022/10/22 03:18:16;;;;;;;0.47;0.47;;;;;;;;;;1806780;78;26342;-43
2022/10/22 03:20:43;;;;;;;0.60;0.60;;;;;;;;;;1799610;78;26216;-46
2022/10/22 03:23:12;;;;;;;0.60;0.60;;;;;;;;;;1797326;78;26279;-43
2022/10/22 03:25:40;;;;;;;0.60;0.60;;;;;;;;;;1800092;78;26343;-42
2022/10/22 03:28:08;;;;;;;0.53;0.53;;;;;;;;;;1789271;78;26334;-49
2022/10/22 03:30:35;;;;;;;0.47;0.47;;;;;;;;;;1788999;78;26216;-44
2022/10/22 03:33:02;;;;;;;0.70;0.70;;;;;;;;;;1789843;78;26809;-42
2022/10/22 03:35:30;;;;;;;0.62;0.62;;;;;;;;;;1804107;78;26719;-54
2022/10/22 03:37:59;;;;;;;0.60;0.60;;;;;;;;;;1817299;77;26235;-57
2022/10/22 03:40:27;;;;;;;0.42;0.42;;;;;;;;;;1827181;77;27455;-49
2022/10/22 03:42:54;;;;;;;0.62;0.62;;;;;;;;;;1835591;77;26227;-46
2022/10/22 03:45:21;;;;;;;0.60;0.60;;;;;;;;;;1845853;77;26278;-43
2022/10/22 03:47:49;;;;;;;0.35;0.35;;;;;;;;;;1841330;77;26229;-42
2022/10/22 03:50:16;;;;;;;0.85;0.50;;;;;;;;;;1838922;77;26260;-43
2022/10/22 03:52:43;;;;;;;0.65;0.65;;;;;;;;;;1845894;77;27216;-48
2022/10/22 03:55:10;;;;;;;0.57;0.57;;;;;;;;;;1848306;76;26214;-43
2022/10/22 03:57:38;;;;;;;0.53;0.53;;;;;;;;;;1843121;77;26347;-45
2022/10/22 04:00:06;;;;;;;0.70;0.70;;;;;;;;;;1851867;77;26260;-45
2022/10/22 04:02:33;;;;;;;0.55;0.55;;;;;;;;;;1836096;77;26228;-48
2022/10/22 04:05:01;;;;;;;0.60;0.60;;;;;;;;;;1835339;77;26331;-42
2022/10/22 04:07:28;;;;;;;0.70;0.70;;;;;;;;;;1834925;77;26793;-41
2022/10/22 04:09:55;;;;;;;0.70;0.70;;;;;;;;;;1818612;77;27261;-48
2022/10/22 04:12:22;;;;;;;0.70;0.70;;;;;;;;;;1835168;77;26605;-49
2022/10/22 04:14:50;;;;;;;0.60;0.60;;;;;;;;;;1845768;77;26655;-50
2022/10/22 04:17:17;;;;;;;0.65;0.65;;;;;;;;;;1842495;77;26583;-42
2022/10/22 04:19:44;;;;;;;0.62;0.62;;;;;;;;;;1837058;77;26264;-45
2022/10/22 04:22:11;;;;;;;0.55;0.55;;;;;;;;;;1832902;77;26264;-53
2022/10/22 04:24:39;;;;;;;0.55;0.55;;;;;;;;;;1836303;77;26194;-44
2022/10/22 04:27:06;;;;;;;0.55;0.55;;;;;;;;;;1830535;77;26310;-44
2022/10/22 04:29:33;;;;;;;0.62;0.62;;;;;;;;;;1842909;77;26191;-49
2022/10/22 04:32:00;;;;;;;0.60;0.60;;;;;;;;;;1853990;77;26227;-53
2022/10/22 04:34:28;;;;;;;0.65;0.50;;;;;;;;;;1857315;77;26203;-45
2022/10/22 04:36:55;;;;;;;0.53;0.53;;;;;;;;;;1858916;77;26425;-43
2022/10/22 04:39:23;;;;;;;0.50;0.50;;;;;;;;;;1843778;77;26196;-45
2022/10/22 04:41:50;;;;;;;0.70;0.70;;;;;;;;;;1829863;77;26319;-46
2022/10/22 04:44:17;;;;;;;0.50;0.50;;;;;;;;;;1830623;77;26846;-44
2022/10/22 04:46:44;;;;;;;0.53;0.53;;;;;;;;;;1843468;77;26731;-47
2022/10/22 04:49:12;;;;;;;0.60;0.60;;;;;;;;;;1839115;77;26201;-45
2022/10/22 04:51:39;;;;;;;0.70;0.70;;;;;;;;;;1843230;77;26203;-47
2022/10/22 04:54:06;;;;;;;0.50;0.50;;;;;;;;;;1836547;76;26709;-46
2022/10/22 04:56:34;;;;;;;0.55;0.55;;;;;;;;;;1828210;77;26708;-43
2022/10/22 04:59:02;;;;;;;0.42;0.42;;;;;;;;;;1833879;77;26698;-49
2022/10/22 05:01:31;;;;;;;0.60;0.60;;;;;;;;;;1843188;77;26665;-54
2022/10/22 05:04:00;;;;;;;0.60;0.60;;;;;;;;;;1836436;77;26454;-51
2022/10/22 05:06:28;;;;;;;0.60;0.60;;;;;;;;;;1831937;77;26283;-44
2022/10/22 05:08:57;;;;;;;0.60;0.60;;;;;;;;;;1839952;77;26224;-51
2022/10/22 05:11:27;;;;;;;0.57;0.57;;;;;;;;;;1831713;77;26208;-44
2022/10/22 05:13:57;;;;;;;0.60;0.60;;;;;;;;;;1834170;77;26279;-46
2022/10/22 05:16:25;;;;;;;0.60;0.60;;;;;;;;;;1837190;77;26718;-46
2022/10/22 05:18:52;;;;;;;0.50;0.50;;;;;;;;;;1828502;77;26258;-43
2022/10/22 05:21:20;;;;;;;0.60;0.60;;;;;;;;;;1818957;77;26330;-48
2022/10/22 05:23:49;;;;;;;0.60;0.60;;;;;;;;;;1827386;77;26715;-44
2022/10/22 05:26:17;;;;;;;0.70;0.70;;;;;;;;;;1839345;77;26228;-49
2022/10/22 05:28:46;;;;;;;0.60;0.60;;;;;;;;;;1854359;77;26249;-43
2022/10/22 05:31:13;;;;;;;0.60;0.60;;;;;;;;;;1864126;77;26191;-47
2022/10/22 05:33:42;;;;;;;0.72;0.72;;;;;;;;;;1856223;77;26282;-45
2022/10/22 05:36:11;;;;;;;0.60;0.60;;;;;;;;;;1855379;77;26993;-48
2022/10/22 05:38:38;;;;;;;0.70;0.70;;;;;;;;;;1851222;77;26828;-51
2022/10/22 05:41:07;;;;;;;0.70;0.70;;;;;;;;;;1848476;77;26207;-43
2022/10/22 05:43:34;;;;;;;0.60;0.60;;;;;;;;;;1845508;77;26260;-45
2022/10/22 05:46:03;;;;;;;1.55;0.60;;;;;;;;;;1846921;77;26205;-46
2022/10/22 05:48:30;;;;;;;0.60;0.60;;;;;;;;;;1859834;77;26832;-52
2022/10/22 05:51:03;;;;;;;0.60;0.60;;;;;;;;;;1855826;77;26312;-51
2022/10/22 05:53:28;;;;;;;0.55;0.55;;;;;;;;;;1848459;77;26280;-43
2022/10/22 05:55:55;;;;;;;0.85;0.60;;;;;;;;;;1859736;77;26268;-45
2022/10/22 05:58:23;;;;;;;0.68;0.68;;;;;;;;;;1853512;77;26668;-47
2022/10/22 06:00:50;;;;;;;0.78;0.78;;;;;;;;;;1836891;77;26280;-50
2022/10/22 06:03:17;;;;;;;0.57;0.57;;;;;;;;;;1849942;77;26228;-44
2022/10/22 06:05:44;;;;;;;0.50;0.50;;;;;;;;;;1847502;77;26277;-50
2022/10/22 06:08:13;;;;;;;0.78;0.78;;;;;;;;;;1861529;77;26308;-54
2022/10/22 06:10:42;;;;;;;1.07;0.50;;;;;;;;;;1847264;77;26291;-52
2022/10/22 06:13:09;;;;;;;0.70;0.70;;;;;;;;;;1848853;77;26268;-43
2022/10/22 06:15:36;;;;;;;0.60;0.60;;;;;;;;;;1846762;77;26195;-45
2022/10/22 06:18:04;;;;;;;0.60;0.60;;;;;;;;;;1853779;77;26288;-57
2022/10/22 06:20:32;;;;;;;0.50;0.50;;;;;;;;;;1860147;77;26194;-53
2022/10/22 06:23:00;;;;;;;0.50;0.50;;;;;;;;;;1856268;77;26261;-55
2022/10/22 06:25:27;;;;;;;0.70;0.70;;;;;;;;;;1849883;77;26647;-52
2022/10/22 06:27:54;;;;;;;0.65;0.65;;;;;;;;;;1845432;77;26222;-47
2022/10/22 06:30:22;;;;;;;0.70;0.70;;;;;;;;;;1850804;77;26227;-58
2022/10/22 06:32:49;;;;;;;0.70;0.70;;;;;;;;;;1835361;77;26252;-44
2022/10/22 06:35:16;;;;;;;1.90;0.78;;;;;;;;;;1840774;77;26598;-43
2022/10/22 06:37:46;;;;;;;1.45;0.72;;;;;;;;;;1845906;77;26212;-45
2022/10/22 06:40:13;;;;;;;3.17;0.85;;;;;;;;;;1814670;77;26287;-47
2022/10/22 06:42:40;;;;;;;0.75;0.75;;;;;;;;;;1802737;78;26839;-51
2022/10/22 06:45:08;;;;;;;0.78;0.78;;;;;;;;;;1806589;78;27382;-48
2022/10/22 06:47:35;;;;;;;0.70;0.70;;;;;;;;;;1824059;78;26749;-55
2022/10/22 06:50:02;;;;;;;2.27;0.80;;;;;;;;;;1817943;78;26745;-50
2022/10/22 06:52:30;;;;;;;0.60;0.60;;;;;;;;;;1822993;78;26265;-46
2022/10/22 06:54:57;;;;;;;4.50;1.00;;;;;;;;;;1825202;78;26257;-46
2022/10/22 06:57:24;;;;;;;2.08;1.10;;;;;;;;;;1815621;78;26249;-47
2022/10/22 06:59:51;;;;;;;1.15;1.00;;;;;;;;;;1801851;78;26366;-52
2022/10/22 07:02:19;;;;;;;1.10;0.82;;;;;;;;;;1797334;78;26245;-50
2022/10/22 07:04:46;;;;;;;2.77;1.05;;;;;;;;;;1801951;78;26740;-46
2022/10/22 07:07:14;;;;;;;0.85;0.85;;;;;;;;;;1808557;78;26311;-43
2022/10/22 07:09:44;;;;;;;3.35;0.90;;;;;;;;;;1816617;78;26803;-46
2022/10/22 07:12:11;;;;;;;0.88;0.88;;;;;;;;;;1800509;78;26888;-49
2022/10/22 07:14:38;;;;;;;1.02;1.00;;;;;;;;;;1808888;78;26807;-56
2022/10/22 07:17:05;;;;;;;1.77;1.10;;;;;;;;;;1803374;78;26881;-48
2022/10/22 07:19:32;;;;;;;2.85;1.10;;;;;;;;;;1796636;78;27050;-51
2022/10/22 07:22:00;;;;;;;3.60;1.00;;;;;;;;;;1817470;78;26941;-44
2022/10/22 07:24:27;;;;;;;0.90;0.90;;;;;;;;;;1813964;78;26253;-48
2022/10/22 07:26:54;;;;;;;1.00;1.00;;;;;;;;;;1822092;78;26328;-48
2022/10/22 07:29:22;;;;;;;0.98;0.90;;;;;;;;;;1824509;78;26359;-43
2022/10/22 07:31:49;;;;;;;2.92;1.00;;;;;;;;;;1814135;78;26295;-44
2022/10/22 07:34:16;;;;;;;1.62;1.10;;;;;;;;;;1816284;78;26773;-56
2022/10/22 07:36:44;;;;;;;4.42;1.17;;;;;;;;;;1815160;78;26284;-51
2022/10/22 07:39:11;;;;;;;2.12;1.10;;;;;;;;;;1819918;78;26246;-54
2022/10/22 07:41:38;;;;;;;1.42;1.30;;;;;;;;;;1843148;77;26207;-46
2022/10/22 07:44:05;;;;;;;6.08;1.20;;;;;;;;;;1858304;76;26518;-48
2022/10/22 07:46:34;;;;;;;1.30;1.20;;;;;;;;;;1853077;77;26276;-51
2022/10/22 07:49:01;;;;;;;1.57;1.10;;;;;;;;;;1855906;77;26211;-54
2022/10/22 07:51:28;;;;;;;2.45;1.10;;;;;;;;;;1840010;77;26253;-54
2022/10/22 07:53:55;;;;;;;1.15;1.05;;;;;;;;;;1843918;77;26312;-57
2022/10/22 07:56:23;;;;;;;2.40;1.20;;;;;;;;;;1848602;77;26745;-54
2022/10/22 07:58:50;;;;;;;1.30;1.20;;;;;;;;;;1831861;76;26724;-57
2022/10/22 08:01:17;;;;;;;1.42;1.12;;;;;;;;;;1846242;76;26283;-56
2022/10/22 08:03:45;;;;;;;1.02;1.00;;;;;;;;;;1838404;76;26247;-56
2022/10/22 08:06:13;;;;;;;2.17;1.30;;;;;;;;;;1831324;76;26302;-57
2022/10/22 08:08:40;;;;;;;1.47;1.20;;;;;;;;;;1833160;76;27895;-52
2022/10/22 08:11:09;;;;;;;1.00;1.00;;;;;;;;;;1855756;77;26342;-63
2022/10/22 08:13:37;;;;;;;1.00;1.00;;;;;;;;;;1851028;77;26207;-46
2022/10/22 08:16:04;;;;;;;2.08;1.20;;;;;;;;;;1848092;77;26223;-45
2022/10/22 08:18:32;;;;;;;2.27;1.10;;;;;;;;;;1852833;77;26207;-52
2022/10/22 08:20:59;;;;;;;2.83;1.05;;;;;;;;;;1858898;77;26289;-47
2022/10/22 08:23:27;;;;;;;2.05;1.25;;;;;;;;;;1852787;77;26293;-47
2022/10/22 08:25:55;;;;;;;3.65;1.20;;;;;;;;;;1860239;77;26700;-45
2022/10/22 08:28:22;;;;;;;1.40;1.20;;;;;;;;;;1846080;77;26230;-49
2022/10/22 08:30:49;;;;;;;2.27;1.50;;;;;;;;;;1865122;77;26288;-54
2022/10/22 08:33:17;;;;;;;2.20;1.10;;;;;;;;;;1853611;77;26688;-47
2022/10/22 08:35:49;;;;;;;4.60;1.37;;;;;;;;;;1848915;77;26330;-50
2022/10/22 08:38:16;;;;;;;1.70;1.30;;;;;;;;;;1835023;77;26288;-45
2022/10/22 08:40:45;;;;;;;1.30;1.20;;;;;;;;;;1858632;77;26780;-51
2022/10/22 08:43:30;;;;;;;2.30;1.32;;;;;;;;;;1855659;77;26681;-53
2022/10/22 08:45:59;;;;;;;1.30;1.30;;;;;;;;;;1851198;77;26215;-47
2022/10/22 08:48:28;;;;;;;1.82;1.20;;;;;;;;;;1850902;77;26277;-46
2022/10/22 08:50:56;;;;;;;1.35;1.15;;;;;;;;;;1819804;77;26310;-50
2022/10/22 08:53:31;;;;;;;1.10;1.10;;;;;;;;;;1834427;77;26211;-48
2022/10/22 08:55:58;;;;;;;2.05;1.20;;;;;;;;;;1841602;77;26694;-45
2022/10/22 08:58:33;;;;;;;1.40;1.40;;;;;;;;;;1823284;77;26248;-44
2022/10/22 09:01:15;;;;;;;2.05;1.20;;;;;;;;;;1845277;77;26224;-45
2022/10/22 09:03:46;;;;;;;1.10;1.10;;;;;;;;;;1752078;79;26273;-52
2022/10/22 09:06:15;;;;;;;1.30;1.30;;;;;;;;;;1822308;77;26229;-56
2022/10/22 09:08:43;;;;;;;2.50;1.55;;;;;;;;;;1834916;77;26701;-51
2022/10/22 09:11:12;;;;;;;2.15;1.60;;;;;;;;;;1840912;77;26292;-54
2022/10/22 09:13:40;;;;;;;1.50;1.45;;;;;;;;;;1839838;77;26169;-61
2022/10/22 09:16:21;;;;;;;1.30;1.30;;;;;;;;;;1854932;77;26250;-52
2022/10/22 09:18:50;;;;;;;1.60;1.50;;;;;;;;;;1828802;77;26256;-50
2022/10/22 09:21:19;;;;;;;2.33;1.50;;;;;;;;;;1830956;77;26280;-46
2022/10/22 09:23:48;;;;;;;1.37;1.37;;;;;;;;;;1830240;76;26322;-57
2022/10/22 09:26:16;;;;;;;1.40;1.40;;;;;;;;;;1823968;76;26322;-50
2022/10/22 09:28:45;;;;;;;1.30;1.30;;;;;;;;;;1831310;78;26363;-47
2022/10/22 09:31:13;;;;;;;1.90;1.60;;;;;;;;;;1823801;77;26237;-50
2022/10/22 09:33:41;;;;;;;2.00;1.80;;;;;;;;;;1831867;78;26311;-46
2022/10/22 09:36:10;;;;;;;1.80;1.70;;;;;;;;;;1828912;77;26241;-53
2022/10/22 09:38:40;;;;;;;1.90;1.80;;;;;;;;;;1831206;77;26348;-53
2022/10/22 09:41:08;;;;;;;1.90;1.70;;;;;;;;;;1832842;77;26807;-44
2022/10/22 09:43:36;;;;;;;4.22;2.10;;;;;;;;;;1843542;76;26283;-47
2022/10/22 09:46:07;;;;;;;7.10;2.27;;;;;;;;;;1846217;76;26641;-46
2022/10/22 09:48:36;;;;;;;2.87;2.10;;;;;;;;;;1830763;76;26338;-51
2022/10/22 09:51:21;;;;;;;2.12;1.90;;;;;;;;;;1847621;76;26309;-46
2022/10/22 09:53:49;;;;;;;3.02;2.10;;;;;;;;;;1856425;76;26269;-44
2022/10/22 09:56:18;;;;;;;6.97;2.10;;;;;;;;;;1847025;76;26299;-44
2022/10/22 09:58:48;;;;;;;3.92;2.05;;;;;;;;;;1852320;76;26706;-47
2022/10/22 10:01:20;;;;;;;3.55;2.20;;;;;;;;;;1851341;76;26310;-50
2022/10/22 10:03:48;;;;;;;2.42;2.08;;;;;;;;;;1848344;76;26258;-59
2022/10/22 10:06:19;;;;;;;3.95;2.20;;;;;;;;;;1836528;76;26211;-45
2022/10/22 10:08:48;;;;;;;3.98;2.00;;;;;;;;;;1852577;76;26228;-54
2022/10/22 10:11:29;;;;;;;5.85;2.30;;;;;;;;;;1849261;76;26360;-50
2022/10/22 10:13:57;;;;;;;4.45;2.22;;;;;;;;;;1846840;76;26790;-46
2022/10/22 10:16:26;;;;;;;3.80;2.65;;;;;;;;;;1858470;76;26685;-51
2022/10/22 10:18:55;;;;;;;5.85;2.70;;;;;;;;;;1842869;76;26358;-47
2022/10/22 10:21:24;;;;;;;4.70;2.80;;;;;;;;;;1800844;77;26323;-47
2022/10/22 10:23:55;;;;;;;3.47;3.17;;;;;;;;;;1839095;76;26274;-48
2022/10/22 10:26:33;;;;;;;4.20;3.00;;;;;;;;;;1849613;76;27065;-53
2022/10/22 10:29:02;;;;;;;4.85;2.67;;;;;;;;;;1837156;76;26730;-49
2022/10/22 10:31:40;;;;;;;4.87;2.90;;;;;;;;;;1839217;76;26665;-54
2022/10/22 10:34:21;;;;;;;5.37;2.77;;;;;;;;;;1847756;76;26423;-48
2022/10/22 10:36:49;;;;;;;2.70;2.50;;;;;;;;;;1844995;76;26696;-48
2022/10/22 10:39:22;;;;;;;6.55;2.77;;;;;;;;;;1844944;76;26811;-51
2022/10/22 10:41:57;;;;;;;5.53;2.30;;;;;;;;;;1830368;76;26689;-53
2022/10/22 10:44:43;;;;;;;3.37;2.50;;;;;;;;;;1742720;78;26352;-52
2022/10/22 10:47:14;;;;;;;2.98;2.50;;;;;;;;;;1795719;78;26318;-48
2022/10/22 10:49:43;;;;;;;3.85;2.60;;;;;;;;;;1784841;78;26775;-51
2022/10/22 10:52:15;;;;;;;3.08;2.30;;;;;;;;;;1791719;78;26773;-54
2022/10/22 10:55:01;;;;;;;3.02;2.25;;;;;;;;;;1778403;77;26715;-49
2022/10/22 10:57:35;;;;;;;2.60;2.40;;;;;;;;;;1789998;78;25738;-43
2022/10/22 11:00:13;;;;;;;4.78;2.30;;;;;;;;;;1795636;78;26865;-47
2022/10/22 11:02:59;;;;;;;4.67;2.00;;;;;;;;;;1811357;78;25368;-45
2022/10/22 11:05:28;;;;;;;2.55;2.35;;;;;;;;;;1811376;78;26747;-49
2022/10/22 11:07:59;;;;;;;3.20;2.05;;;;;;;;;;1793478;78;26700;-51
2022/10/22 11:10:43;;;;;;;2.37;2.00;;;;;;;;;;1797100;78;26291;-49
2022/10/22 11:13:28;;;;;;;2.83;2.10;;;;;;;;;;1788843;78;26275;-47
2022/10/22 11:16:06;;;;;;;4.55;2.12;;;;;;;;;;1818952;78;26286;-48
2022/10/22 11:18:37;;;;;;;2.02;1.90;;;;;;;;;;1799111;78;26344;-49
2022/10/22 11:21:13;;;;;;;2.58;1.87;;;;;;;;;;1791185;78;26266;-49
2022/10/22 11:23:48;;;;;;;2.15;1.87;;;;;;;;;;1775711;77;26321;-56
2022/10/22 11:26:17;;;;;;;2.25;2.00;;;;;;;;;;1787867;78;26289;-45
2022/10/22 11:28:45;;;;;;;2.17;2.00;;;;;;;;;;1786632;78;26365;-51
2022/10/22 11:31:17;;;;;;;2.98;1.95;;;;;;;;;;1803442;78;26220;-48
2022/10/22 11:33:46;;;;;;;3.12;1.62;;;;;;;;;;1792229;78;26285;-51
2022/10/22 11:36:13;;;;;;;1.90;1.80;;;;;;;;;;1799670;78;26308;-49
2022/10/22 11:38:41;;;;;;;2.58;1.87;;;;;;;;;;1791709;78;26800;-49
2022/10/22 11:41:12;;;;;;;1.95;1.85;;;;;;;;;;1793705;78;26284;-50
2022/10/22 11:44:01;;;;;;;3.22;1.80;;;;;;;;;;1853211;76;26237;-47
2022/10/22 11:46:30;;;;;;;3.08;2.00;;;;;;;;;;1861071;76;26247;-54
2022/10/22 11:49:11;;;;;;;2.80;1.80;;;;;;;;;;1855500;76;26337;-47
2022/10/22 11:51:39;;;;;;;3.65;1.70;;;;;;;;;;1840486;76;26355;-50
2022/10/22 11:54:25;;;;;;;3.35;1.77;;;;;;;;;;1841107;76;26731;-49
2022/10/22 11:56:53;;;;;;;4.28;1.95;;;;;;;;;;1850031;76;26355;-47
2022/10/22 11:59:31;;;;;;;3.83;1.90;;;;;;;;;;1848847;76;26731;-45
2022/10/22 12:01:59;;;;;;;3.75;1.82;;;;;;;;;;1840187;75;26328;-51
2022/10/22 12:04:28;;;;;;;3.30;1.80;;;;;;;;;;1838371;77;26328;-47
2022/10/22 12:06:59;;;;;;;5.67;1.90;;;;;;;;;;1833863;76;26290;-49
2022/10/22 12:09:30;;;;;;;2.90;1.80;;;;;;;;;;1837833;76;26822;-49
2022/10/22 12:12:04;;;;;;;3.58;2.00;;;;;;;;;;1837527;76;26294;-51
2022/10/22 12:14:40;;;;;;;2.67;1.85;;;;;;;;;;1822895;76;26893;-47
2022/10/22 12:17:12;;;;;;;2.35;1.70;;;;;;;;;;1844215;75;26345;-56
2022/10/22 12:19:43;;;;;;;2.40;1.67;;;;;;;;;;1841577;76;26718;-55
2022/10/22 12:22:15;;;;;;;5.08;1.77;;;;;;;;;;1835827;76;25642;-48
2022/10/22 12:24:44;;;;;;;3.17;2.02;;;;;;;;;;1833068;76;26263;-50
2022/10/22 12:27:21;;;;;;;2.10;2.00;;;;;;;;;;1837492;76;26246;-47
2022/10/22 12:29:49;;;;;;;1.90;1.80;;;;;;;;;;1839770;76;26311;-46
2022/10/22 12:32:17;;;;;;;2.42;1.92;;;;;;;;;;1853625;76;27192;-51
2022/10/22 12:34:48;;;;;;;3.02;1.80;;;;;;;;;;1848077;76;26282;-48
2022/10/22 12:37:16;;;;;;;4.12;1.92;;;;;;;;;;1835260;76;26319;-46
2022/10/22 12:39:44;;;;;;;3.75;2.10;;;;;;;;;;1840071;76;26594;-44
2022/10/22 12:42:16;;;;;;;4.10;1.80;;;;;;;;;;1842203;76;26338;-48
2022/10/22 12:44:44;;;;;;;2.65;1.82;;;;;;;;;;1809469;78;26248;-45
2022/10/22 12:47:17;;;;;;;3.65;2.00;;;;;;;;;;1788084;78;26322;-48
2022/10/22 12:49:49;;;;;;;4.15;1.98;;;;;;;;;;1795533;78;26291;-55
2022/10/22 12:52:20;;;;;;;6.05;2.12;;;;;;;;;;1800188;78;26675;-52
2022/10/22 12:54:51;;;;;;;2.20;1.98;;;;;;;;;;1776194;78;26270;-55
2022/10/22 12:57:19;;;;;;;2.90;2.20;;;;;;;;;;1802000;78;26306;-45
2022/10/22 12:59:48;;;;;;;2.05;1.95;;;;;;;;;;1802618;78;26270;-50
2022/10/22 13:02:17;;;;;;;4.37;2.12;;;;;;;;;;1808371;78;26206;-47
2022/10/22 13:04:46;;;;;;;5.50;2.65;;;;;;;;;;1802627;77;26361;-46
2022/10/22 13:07:15;;;;;;;1.70;1.60;;;;;;;;;;1799958;78;26424;-50
2022/10/22 13:09:46;;;;;;;1.92;1.77;;;;;;;;;;1781777;78;26341;-45
2022/10/22 13:12:17;;;;;;;2.50;2.30;;;;;;;;;;1794165;78;26278;-44
2022/10/22 13:14:45;;;;;;;2.30;2.05;;;;;;;;;;1791703;78;26341;-48
2022/10/22 13:17:14;;;;;;;4.85;2.00;;;;;;;;;;1815616;78;26321;-47
2022/10/22 13:19:49;;;;;;;6.92;2.10;;;;;;;;;;1807523;78;26316;-56
2022/10/22 13:22:24;;;;;;;2.33;1.90;;;;;;;;;;1820145;78;26234;-53
2022/10/22 13:24:51;;;;;;;2.17;1.98;;;;;;;;;;1811182;78;26310;-53
2022/10/22 13:27:19;;;;;;;2.08;1.95;;;;;;;;;;1812601;78;26291;-48
2022/10/22 13:29:46;;;;;;;2.00;1.90;;;;;;;;;;1814631;78;27152;-50
2022/10/22 13:32:20;;;;;;;2.15;1.90;;;;;;;;;;1802242;78;26222;-53
2022/10/22 13:34:48;;;;;;;2.02;1.85;;;;;;;;;;1775331;78;26322;-44
2022/10/22 13:37:15;;;;;;;4.42;1.95;;;;;;;;;;1803532;78;26644;-54
2022/10/22 13:39:42;;;;;;;2.45;1.95;;;;;;;;;;1794653;78;26251;-51
2022/10/22 13:42:11;;;;;;;3.05;2.10;;;;;;;;;;1805188;77;26329;-49
2022/10/22 13:44:38;;;;;;;2.30;2.10;;;;;;;;;;1839716;77;26221;-52
2022/10/22 13:47:07;;;;;;;2.27;2.10;;;;;;;;;;1852206;77;26378;-54
2022/10/22 13:49:34;;;;;;;5.08;2.30;;;;;;;;;;1834195;77;26265;-49
2022/10/22 13:52:02;;;;;;;2.30;2.20;;;;;;;;;;1844384;77;26270;-45
2022/10/22 13:54:29;;;;;;;2.42;2.20;;;;;;;;;;1845893;76;26329;-53
2022/10/22 13:56:56;;;;;;;2.70;2.50;;;;;;;;;;1843891;77;26207;-44
2022/10/22 13:59:24;;;;;;;3.72;2.22;;;;;;;;;;1845754;76;26629;-45
2022/10/22 14:01:52;;;;;;;2.72;2.40;;;;;;;;;;1852837;77;26209;-49
2022/10/22 14:04:19;;;;;;;3.08;2.33;;;;;;;;;;1836992;77;26180;-50
2022/10/22 14:06:46;;;;;;;6.85;2.72;;;;;;;;;;1842799;77;26232;-51
2022/10/22 14:09:14;;;;;;;3.37;2.25;;;;;;;;;;1850394;77;26250;-49
2022/10/22 14:11:42;;;;;;;4.47;2.10;;;;;;;;;;1846420;77;27699;-49
2022/10/22 14:14:12;;;;;;;5.05;2.60;;;;;;;;;;1847339;77;26223;-48
2022/10/22 14:16:38;;;;;;;5.78;2.40;;;;;;;;;;1841039;77;26216;-49
2022/10/22 14:19:07;;;;;;;2.50;2.30;;;;;;;;;;1836250;77;26278;-55
2022/10/22 14:21:36;;;;;;;2.72;2.55;;;;;;;;;;1850946;77;26405;-51
2022/10/22 14:24:03;;;;;;;2.87;2.47;;;;;;;;;;1852954;77;26649;-49
2022/10/22 14:26:32;;;;;;;2.30;2.10;;;;;;;;;;1845911;77;26204;-43
2022/10/22 14:29:00;;;;;;;2.27;2.08;;;;;;;;;;1831515;77;26292;-48
2022/10/22 14:31:27;;;;;;;2.12;2.02;;;;;;;;;;1838354;77;26252;-48
2022/10/22 14:33:54;;;;;;;3.40;2.30;;;;;;;;;;1846473;77;26282;-45
2022/10/22 14:36:22;;;;;;;4.12;2.20;;;;;;;;;;1840551;77;26209;-45
2022/10/22 14:38:49;;;;;;;2.58;2.37;;;;;;;;;;1833838;77;26216;-45
2022/10/22 14:41:18;;;;;;;2.30;2.10;;;;;;;;;;1827918;77;26678;-54
2022/10/22 14:43:46;;;;;;;2.42;2.20;;;;;;;;;;1830654;77;27723;-54
2022/10/22 14:46:14;;;;;;;2.20;2.00;;;;;;;;;;1816282;78;26787;-47
2022/10/22 14:48:42;;;;;;;4.05;2.05;;;;;;;;;;1794663;78;26717;-48
2022/10/22 14:51:16;;;;;;;2.20;2.00;;;;;;;;;;1821754;78;26276;-50
2022/10/22 14:53:44;;;;;;;3.22;2.30;;;;;;;;;;1819698;78;26710;-53
2022/10/22 14:56:12;;;;;;;2.25;2.05;;;;;;;;;;1816016;78;26269;-48